sensor_id;sensor_type;location;lat;lon;timestamp;P1;durP1;ratioP1;P2;durP2;ratioP2
84260;SDS011;74405;44.868;18.808;2023-12-28T00:00:58;209.70;;;98.05;;
84260;SDS011;74405;44.868;18.808;2023-12-28T00:03:24;189.68;;;86.70;;
84260;SDS011;74405;44.868;18.808;2023-12-28T00:05:49;192.52;;;94.13;;
84260;SDS011;74405;44.868;18.808;2023-12-28T00:08:15;189.88;;;89.95;;
84260;SDS011;74405;44.868;18.808;2023-12-28T00:10:41;199.40;;;91.55;;
84260;SDS011;74405;44.868;18.808;2023-12-28T00:13:06;184.38;;;85.25;;
84260;SDS011;74405;44.868;18.808;2023-12-28T00:15:32;173.25;;;84.03;;
84260;SDS011;74405;44.868;18.808;2023-12-28T00:17:57;155.15;;;78.90;;
84260;SDS011;74405;44.868;18.808;2023-12-28T00:20:23;170.07;;;77.35;;
84260;SDS011;74405;44.868;18.808;2023-12-28T00:22:48;149.82;;;68.45;;
84260;SDS011;74405;44.868;18.808;2023-12-28T00:25:14;149.88;;;74.53;;
84260;SDS011;74405;44.868;18.808;2023-12-28T00:27:40;161.63;;;75.13;;
84260;SDS011;74405;44.868;18.808;2023-12-28T00:30:05;151.77;;;73.63;;
84260;SDS011;74405;44.868;18.808;2023-12-28T00:32:31;125.07;;;61.70;;
84260;SDS011;74405;44.868;18.808;2023-12-28T00:34:57;113.22;;;59.22;;
84260;SDS011;74405;44.868;18.808;2023-12-28T00:37:22;89.97;;;47.08;;
84260;SDS011;74405;44.868;18.808;2023-12-28T00:39:48;95.25;;;48.35;;
84260;SDS011;74405;44.868;18.808;2023-12-28T00:42:17;85.90;;;42.90;;
84260;SDS011;74405;44.868;18.808;2023-12-28T00:44:44;76.53;;;38.08;;
84260;SDS011;74405;44.868;18.808;2023-12-28T00:47:09;68.35;;;35.30;;
84260;SDS011;74405;44.868;18.808;2023-12-28T00:49:36;77.97;;;39.95;;
84260;SDS011;74405;44.868;18.808;2023-12-28T00:52:02;72.43;;;35.20;;
84260;SDS011;74405;44.868;18.808;2023-12-28T00:54:29;71.53;;;37.53;;
84260;SDS011;74405;44.868;18.808;2023-12-28T00:56:55;67.35;;;37.80;;
84260;SDS011;74405;44.868;18.808;2023-12-28T00:59:20;58.20;;;33.65;;
84260;SDS011;74405;44.868;18.808;2023-12-28T01:01:46;60.15;;;32.78;;
84260;SDS011;74405;44.868;18.808;2023-12-28T01:04:12;63.17;;;33.80;;
84260;SDS011;74405;44.868;18.808;2023-12-28T01:06:37;64.90;;;31.88;;
84260;SDS011;74405;44.868;18.808;2023-12-28T01:09:03;52.75;;;31.52;;
84260;SDS011;74405;44.868;18.808;2023-12-28T01:11:29;55.95;;;30.77;;
84260;SDS011;74405;44.868;18.808;2023-12-28T01:13:54;60.75;;;33.88;;
84260;SDS011;74405;44.868;18.808;2023-12-28T01:16:20;59.10;;;32.30;;
84260;SDS011;74405;44.868;18.808;2023-12-28T01:18:46;60.60;;;33.88;;
84260;SDS011;74405;44.868;18.808;2023-12-28T01:21:11;57.38;;;31.08;;
84260;SDS011;74405;44.868;18.808;2023-12-28T01:23:37;58.33;;;32.28;;
84260;SDS011;74405;44.868;18.808;2023-12-28T01:26:03;58.25;;;32.47;;
84260;SDS011;74405;44.868;18.808;2023-12-28T01:28:28;63.78;;;35.03;;
84260;SDS011;74405;44.868;18.808;2023-12-28T01:30:55;64.13;;;36.20;;
84260;SDS011;74405;44.868;18.808;2023-12-28T01:33:20;75.50;;;41.10;;
84260;SDS011;74405;44.868;18.808;2023-12-28T01:35:46;68.82;;;38.83;;
84260;SDS011;74405;44.868;18.808;2023-12-28T01:38:12;62.90;;;34.70;;
84260;SDS011;74405;44.868;18.808;2023-12-28T01:40:37;74.05;;;39.42;;
84260;SDS011;74405;44.868;18.808;2023-12-28T01:43:03;66.25;;;36.60;;
84260;SDS011;74405;44.868;18.808;2023-12-28T01:45:29;60.05;;;32.63;;
84260;SDS011;74405;44.868;18.808;2023-12-28T01:47:55;56.40;;;31.92;;
84260;SDS011;74405;44.868;18.808;2023-12-28T01:50:23;63.63;;;33.63;;
84260;SDS011;74405;44.868;18.808;2023-12-28T01:52:50;62.35;;;34.22;;
84260;SDS011;74405;44.868;18.808;2023-12-28T01:55:16;75.07;;;38.13;;
84260;SDS011;74405;44.868;18.808;2023-12-28T01:57:43;76.05;;;35.97;;
84260;SDS011;74405;44.868;18.808;2023-12-28T02:00:10;68.65;;;35.85;;
84260;SDS011;74405;44.868;18.808;2023-12-28T02:02:40;67.78;;;32.50;;
84260;SDS011;74405;44.868;18.808;2023-12-28T02:05:07;69.60;;;34.38;;
84260;SDS011;74405;44.868;18.808;2023-12-28T02:07:34;61.53;;;32.42;;
84260;SDS011;74405;44.868;18.808;2023-12-28T02:10:01;58.22;;;29.48;;
84260;SDS011;74405;44.868;18.808;2023-12-28T02:12:27;56.00;;;30.73;;
84260;SDS011;74405;44.868;18.808;2023-12-28T02:14:53;52.28;;;29.20;;
84260;SDS011;74405;44.868;18.808;2023-12-28T02:17:21;58.60;;;31.73;;
84260;SDS011;74405;44.868;18.808;2023-12-28T02:19:56;56.13;;;31.20;;
84260;SDS011;74405;44.868;18.808;2023-12-28T02:22:26;61.83;;;30.85;;
84260;SDS011;74405;44.868;18.808;2023-12-28T02:24:58;64.32;;;33.70;;
84260;SDS011;74405;44.868;18.808;2023-12-28T02:27:34;63.30;;;32.80;;
84260;SDS011;74405;44.868;18.808;2023-12-28T02:30:02;62.75;;;34.67;;
84260;SDS011;74405;44.868;18.808;2023-12-28T02:32:34;76.88;;;35.00;;
84260;SDS011;74405;44.868;18.808;2023-12-28T02:35:04;61.33;;;30.77;;
84260;SDS011;74405;44.868;18.808;2023-12-28T02:37:39;55.47;;;31.23;;
84260;SDS011;74405;44.868;18.808;2023-12-28T02:40:05;65.03;;;33.80;;
84260;SDS011;74405;44.868;18.808;2023-12-28T02:42:32;61.95;;;30.02;;
84260;SDS011;74405;44.868;18.808;2023-12-28T02:44:58;52.97;;;30.90;;
84260;SDS011;74405;44.868;18.808;2023-12-28T02:47:24;54.55;;;29.63;;
84260;SDS011;74405;44.868;18.808;2023-12-28T02:49:49;57.33;;;30.17;;
84260;SDS011;74405;44.868;18.808;2023-12-28T02:52:15;51.80;;;29.20;;
84260;SDS011;74405;44.868;18.808;2023-12-28T02:54:40;61.38;;;29.30;;
84260;SDS011;74405;44.868;18.808;2023-12-28T02:57:06;56.08;;;30.15;;
84260;SDS011;74405;44.868;18.808;2023-12-28T02:59:32;55.15;;;29.27;;
84260;SDS011;74405;44.868;18.808;2023-12-28T03:01:57;49.53;;;27.27;;
84260;SDS011;74405;44.868;18.808;2023-12-28T03:04:23;50.80;;;24.95;;
84260;SDS011;74405;44.868;18.808;2023-12-28T03:06:50;48.75;;;24.73;;
84260;SDS011;74405;44.868;18.808;2023-12-28T03:09:17;53.65;;;28.27;;
84260;SDS011;74405;44.868;18.808;2023-12-28T03:11:42;56.03;;;27.95;;
84260;SDS011;74405;44.868;18.808;2023-12-28T03:14:08;50.00;;;27.63;;
84260;SDS011;74405;44.868;18.808;2023-12-28T03:16:33;45.40;;;25.35;;
84260;SDS011;74405;44.868;18.808;2023-12-28T03:19:00;89.20;;;38.33;;
84260;SDS011;74405;44.868;18.808;2023-12-28T03:21:26;56.15;;;29.58;;
84260;SDS011;74405;44.868;18.808;2023-12-28T03:23:53;60.33;;;29.75;;
84260;SDS011;74405;44.868;18.808;2023-12-28T03:26:18;61.40;;;32.75;;
84260;SDS011;74405;44.868;18.808;2023-12-28T03:28:44;63.08;;;33.42;;
84260;SDS011;74405;44.868;18.808;2023-12-28T03:31:09;65.93;;;33.17;;
84260;SDS011;74405;44.868;18.808;2023-12-28T03:33:35;61.03;;;32.53;;
84260;SDS011;74405;44.868;18.808;2023-12-28T03:36:01;56.10;;;29.58;;
84260;SDS011;74405;44.868;18.808;2023-12-28T03:38:27;58.38;;;28.50;;
84260;SDS011;74405;44.868;18.808;2023-12-28T03:40:53;55.17;;;29.67;;
84260;SDS011;74405;44.868;18.808;2023-12-28T03:43:19;62.03;;;33.10;;
84260;SDS011;74405;44.868;18.808;2023-12-28T03:45:44;57.78;;;31.63;;
84260;SDS011;74405;44.868;18.808;2023-12-28T03:48:10;55.78;;;30.88;;
84260;SDS011;74405;44.868;18.808;2023-12-28T03:50:36;55.20;;;31.02;;
84260;SDS011;74405;44.868;18.808;2023-12-28T03:53:01;49.67;;;28.95;;
84260;SDS011;74405;44.868;18.808;2023-12-28T03:55:27;68.75;;;34.95;;
84260;SDS011;74405;44.868;18.808;2023-12-28T03:57:53;66.90;;;35.90;;
84260;SDS011;74405;44.868;18.808;2023-12-28T04:00:19;69.28;;;35.90;;
84260;SDS011;74405;44.868;18.808;2023-12-28T04:02:46;63.45;;;31.95;;
84260;SDS011;74405;44.868;18.808;2023-12-28T04:05:11;65.22;;;33.60;;
84260;SDS011;74405;44.868;18.808;2023-12-28T04:07:37;66.15;;;34.25;;
84260;SDS011;74405;44.868;18.808;2023-12-28T04:10:03;63.92;;;33.88;;
84260;SDS011;74405;44.868;18.808;2023-12-28T04:12:30;63.10;;;34.28;;
84260;SDS011;74405;44.868;18.808;2023-12-28T04:14:55;81.25;;;41.03;;
84260;SDS011;74405;44.868;18.808;2023-12-28T04:17:21;74.80;;;38.92;;
84260;SDS011;74405;44.868;18.808;2023-12-28T04:19:47;64.82;;;35.58;;
84260;SDS011;74405;44.868;18.808;2023-12-28T04:22:12;59.80;;;32.42;;
84260;SDS011;74405;44.868;18.808;2023-12-28T04:24:38;70.85;;;36.45;;
84260;SDS011;74405;44.868;18.808;2023-12-28T04:27:03;70.13;;;36.65;;
84260;SDS011;74405;44.868;18.808;2023-12-28T04:29:29;75.10;;;36.95;;
84260;SDS011;74405;44.868;18.808;2023-12-28T04:31:55;63.47;;;34.15;;
84260;SDS011;74405;44.868;18.808;2023-12-28T04:34:20;59.80;;;35.63;;
84260;SDS011;74405;44.868;18.808;2023-12-28T04:36:46;59.60;;;33.53;;
84260;SDS011;74405;44.868;18.808;2023-12-28T04:39:14;59.90;;;30.38;;
84260;SDS011;74405;44.868;18.808;2023-12-28T04:41:39;64.32;;;31.85;;
84260;SDS011;74405;44.868;18.808;2023-12-28T04:44:05;74.80;;;39.22;;
84260;SDS011;74405;44.868;18.808;2023-12-28T04:46:31;71.70;;;36.72;;
84260;SDS011;74405;44.868;18.808;2023-12-28T04:48:56;68.95;;;38.63;;
84260;SDS011;74405;44.868;18.808;2023-12-28T04:51:22;78.32;;;45.67;;
84260;SDS011;74405;44.868;18.808;2023-12-28T04:53:47;74.55;;;41.67;;
84260;SDS011;74405;44.868;18.808;2023-12-28T04:56:17;85.85;;;46.85;;
84260;SDS011;74405;44.868;18.808;2023-12-28T04:58:44;91.53;;;45.10;;
84260;SDS011;74405;44.868;18.808;2023-12-28T05:01:09;77.10;;;42.50;;
84260;SDS011;74405;44.868;18.808;2023-12-28T05:03:35;69.18;;;39.15;;
84260;SDS011;74405;44.868;18.808;2023-12-28T05:06:01;76.13;;;41.10;;
84260;SDS011;74405;44.868;18.808;2023-12-28T05:08:27;86.47;;;43.35;;
84260;SDS011;74405;44.868;18.808;2023-12-28T05:10:53;76.20;;;40.92;;
84260;SDS011;74405;44.868;18.808;2023-12-28T05:13:19;75.35;;;39.85;;
84260;SDS011;74405;44.868;18.808;2023-12-28T05:15:44;86.57;;;44.38;;
84260;SDS011;74405;44.868;18.808;2023-12-28T05:18:10;100.25;;;46.85;;
84260;SDS011;74405;44.868;18.808;2023-12-28T05:20:35;78.82;;;41.88;;
84260;SDS011;74405;44.868;18.808;2023-12-28T05:23:01;98.60;;;49.17;;
84260;SDS011;74405;44.868;18.808;2023-12-28T05:25:27;90.13;;;45.92;;
84260;SDS011;74405;44.868;18.808;2023-12-28T05:27:52;123.30;;;58.28;;
84260;SDS011;74405;44.868;18.808;2023-12-28T05:30:18;127.78;;;61.22;;
84260;SDS011;74405;44.868;18.808;2023-12-28T05:32:44;96.85;;;51.28;;
84260;SDS011;74405;44.868;18.808;2023-12-28T05:35:09;88.05;;;47.08;;
84260;SDS011;74405;44.868;18.808;2023-12-28T05:37:35;76.80;;;39.17;;
84260;SDS011;74405;44.868;18.808;2023-12-28T05:40:00;68.40;;;38.42;;
84260;SDS011;74405;44.868;18.808;2023-12-28T05:42:26;69.75;;;38.13;;
84260;SDS011;74405;44.868;18.808;2023-12-28T05:44:52;83.75;;;44.55;;
84260;SDS011;74405;44.868;18.808;2023-12-28T05:47:18;85.53;;;45.60;;
84260;SDS011;74405;44.868;18.808;2023-12-28T05:49:45;77.95;;;43.50;;
84260;SDS011;74405;44.868;18.808;2023-12-28T05:52:11;69.72;;;39.17;;
84260;SDS011;74405;44.868;18.808;2023-12-28T05:54:40;77.70;;;42.75;;
84260;SDS011;74405;44.868;18.808;2023-12-28T05:57:05;79.70;;;40.33;;
84260;SDS011;74405;44.868;18.808;2023-12-28T05:59:31;74.53;;;40.50;;
84260;SDS011;74405;44.868;18.808;2023-12-28T06:01:57;78.65;;;38.88;;
84260;SDS011;74405;44.868;18.808;2023-12-28T06:04:22;73.00;;;39.38;;
84260;SDS011;74405;44.868;18.808;2023-12-28T06:06:48;71.13;;;38.30;;
84260;SDS011;74405;44.868;18.808;2023-12-28T06:09:13;65.68;;;37.60;;
84260;SDS011;74405;44.868;18.808;2023-12-28T06:11:39;75.43;;;41.58;;
84260;SDS011;74405;44.868;18.808;2023-12-28T06:14:04;97.68;;;48.90;;
84260;SDS011;74405;44.868;18.808;2023-12-28T06:16:30;93.13;;;45.65;;
84260;SDS011;74405;44.868;18.808;2023-12-28T06:18:58;69.00;;;36.08;;
84260;SDS011;74405;44.868;18.808;2023-12-28T06:21:23;71.53;;;36.75;;
84260;SDS011;74405;44.868;18.808;2023-12-28T06:23:49;79.32;;;38.05;;
84260;SDS011;74405;44.868;18.808;2023-12-28T06:26:15;76.28;;;36.92;;
84260;SDS011;74405;44.868;18.808;2023-12-28T06:28:40;71.97;;;37.47;;
84260;SDS011;74405;44.868;18.808;2023-12-28T06:31:06;74.20;;;35.72;;
84260;SDS011;74405;44.868;18.808;2023-12-28T06:33:32;70.68;;;33.88;;
84260;SDS011;74405;44.868;18.808;2023-12-28T06:35:57;69.15;;;34.25;;
84260;SDS011;74405;44.868;18.808;2023-12-28T06:38:23;58.67;;;31.45;;
84260;SDS011;74405;44.868;18.808;2023-12-28T06:40:50;58.33;;;32.28;;
84260;SDS011;74405;44.868;18.808;2023-12-28T06:43:16;57.67;;;29.67;;
84260;SDS011;74405;44.868;18.808;2023-12-28T06:45:41;61.05;;;33.63;;
84260;SDS011;74405;44.868;18.808;2023-12-28T06:48:07;71.32;;;36.38;;
84260;SDS011;74405;44.868;18.808;2023-12-28T06:50:33;70.47;;;36.78;;
84260;SDS011;74405;44.868;18.808;2023-12-28T06:52:58;78.20;;;39.83;;
84260;SDS011;74405;44.868;18.808;2023-12-28T06:55:24;74.65;;;41.67;;
84260;SDS011;74405;44.868;18.808;2023-12-28T06:57:50;76.28;;;42.65;;
84260;SDS011;74405;44.868;18.808;2023-12-28T07:00:15;94.80;;;47.78;;
84260;SDS011;74405;44.868;18.808;2023-12-28T07:02:41;93.63;;;50.90;;
84260;SDS011;74405;44.868;18.808;2023-12-28T07:05:07;90.10;;;46.63;;
84260;SDS011;74405;44.868;18.808;2023-12-28T07:07:33;81.65;;;43.85;;
84260;SDS011;74405;44.868;18.808;2023-12-28T07:09:59;85.13;;;45.17;;
84260;SDS011;74405;44.868;18.808;2023-12-28T07:12:24;87.18;;;47.10;;
84260;SDS011;74405;44.868;18.808;2023-12-28T07:14:50;89.05;;;45.28;;
84260;SDS011;74405;44.868;18.808;2023-12-28T07:17:15;98.45;;;56.25;;
84260;SDS011;74405;44.868;18.808;2023-12-28T07:19:42;119.95;;;63.58;;
84260;SDS011;74405;44.868;18.808;2023-12-28T07:22:09;102.05;;;55.28;;
84260;SDS011;74405;44.868;18.808;2023-12-28T07:24:34;128.63;;;67.97;;
84260;SDS011;74405;44.868;18.808;2023-12-28T07:27:00;124.63;;;67.68;;
84260;SDS011;74405;44.868;18.808;2023-12-28T07:29:25;176.98;;;89.70;;
84260;SDS011;74405;44.868;18.808;2023-12-28T07:31:51;192.63;;;97.35;;
84260;SDS011;74405;44.868;18.808;2023-12-28T07:34:18;206.70;;;103.80;;
84260;SDS011;74405;44.868;18.808;2023-12-28T07:36:44;193.82;;;99.80;;
84260;SDS011;74405;44.868;18.808;2023-12-28T07:39:10;148.60;;;80.47;;
84260;SDS011;74405;44.868;18.808;2023-12-28T07:41:35;126.30;;;72.15;;
84260;SDS011;74405;44.868;18.808;2023-12-28T07:44:01;169.43;;;89.47;;
84260;SDS011;74405;44.868;18.808;2023-12-28T07:46:27;154.35;;;85.60;;
84260;SDS011;74405;44.868;18.808;2023-12-28T07:48:53;124.30;;;75.47;;
84260;SDS011;74405;44.868;18.808;2023-12-28T07:51:18;114.18;;;68.30;;
84260;SDS011;74405;44.868;18.808;2023-12-28T07:53:44;90.03;;;51.83;;
84260;SDS011;74405;44.868;18.808;2023-12-28T07:56:09;73.97;;;45.10;;
84260;SDS011;74405;44.868;18.808;2023-12-28T07:58:35;102.35;;;62.95;;
84260;SDS011;74405;44.868;18.808;2023-12-28T08:01:02;82.45;;;45.85;;
84260;SDS011;74405;44.868;18.808;2023-12-28T08:03:28;63.83;;;36.53;;
84260;SDS011;74405;44.868;18.808;2023-12-28T08:05:54;72.75;;;39.72;;
84260;SDS011;74405;44.868;18.808;2023-12-28T08:08:20;72.53;;;43.75;;
84260;SDS011;74405;44.868;18.808;2023-12-28T08:10:46;76.82;;;44.70;;
84260;SDS011;74405;44.868;18.808;2023-12-28T08:13:11;82.97;;;45.35;;
84260;SDS011;74405;44.868;18.808;2023-12-28T08:15:37;74.00;;;45.75;;
84260;SDS011;74405;44.868;18.808;2023-12-28T08:18:03;77.88;;;42.72;;
84260;SDS011;74405;44.868;18.808;2023-12-28T08:20:29;74.95;;;41.75;;
84260;SDS011;74405;44.868;18.808;2023-12-28T08:22:54;76.78;;;41.88;;
84260;SDS011;74405;44.868;18.808;2023-12-28T08:25:20;70.32;;;38.22;;
84260;SDS011;74405;44.868;18.808;2023-12-28T08:27:47;61.22;;;34.38;;
84260;SDS011;74405;44.868;18.808;2023-12-28T08:30:12;63.42;;;34.63;;
84260;SDS011;74405;44.868;18.808;2023-12-28T08:32:39;73.10;;;39.65;;
84260;SDS011;74405;44.868;18.808;2023-12-28T08:35:04;112.00;;;58.25;;
84260;SDS011;74405;44.868;18.808;2023-12-28T08:37:30;131.43;;;71.63;;
84260;SDS011;74405;44.868;18.808;2023-12-28T08:39:56;174.13;;;84.18;;
84260;SDS011;74405;44.868;18.808;2023-12-28T08:42:22;166.98;;;88.82;;
84260;SDS011;74405;44.868;18.808;2023-12-28T08:44:50;152.35;;;75.38;;
84260;SDS011;74405;44.868;18.808;2023-12-28T08:47:15;168.60;;;83.90;;
84260;SDS011;74405;44.868;18.808;2023-12-28T08:49:41;151.90;;;80.80;;
84260;SDS011;74405;44.868;18.808;2023-12-28T08:52:07;120.20;;;64.32;;
84260;SDS011;74405;44.868;18.808;2023-12-28T08:54:32;106.05;;;52.28;;
84260;SDS011;74405;44.868;18.808;2023-12-28T08:56:58;86.88;;;43.88;;
84260;SDS011;74405;44.868;18.808;2023-12-28T08:59:27;88.60;;;43.28;;
84260;SDS011;74405;44.868;18.808;2023-12-28T09:01:53;88.00;;;46.83;;
84260;SDS011;74405;44.868;18.808;2023-12-28T09:04:19;87.65;;;47.30;;
84260;SDS011;74405;44.868;18.808;2023-12-28T09:06:45;83.88;;;43.78;;
84260;SDS011;74405;44.868;18.808;2023-12-28T09:09:12;101.40;;;53.97;;
84260;SDS011;74405;44.868;18.808;2023-12-28T09:11:38;100.43;;;53.08;;
84260;SDS011;74405;44.868;18.808;2023-12-28T09:14:04;79.30;;;44.13;;
84260;SDS011;74405;44.868;18.808;2023-12-28T09:16:30;67.32;;;40.05;;
84260;SDS011;74405;44.868;18.808;2023-12-28T09:18:56;72.20;;;40.90;;
84260;SDS011;74405;44.868;18.808;2023-12-28T09:21:22;69.43;;;39.53;;
84260;SDS011;74405;44.868;18.808;2023-12-28T09:23:47;72.45;;;40.28;;
84260;SDS011;74405;44.868;18.808;2023-12-28T09:26:13;63.08;;;35.95;;
84260;SDS011;74405;44.868;18.808;2023-12-28T09:28:39;81.13;;;44.85;;
84260;SDS011;74405;44.868;18.808;2023-12-28T09:31:06;71.70;;;41.88;;
84260;SDS011;74405;44.868;18.808;2023-12-28T09:33:32;67.35;;;42.25;;
84260;SDS011;74405;44.868;18.808;2023-12-28T09:35:59;68.70;;;41.65;;
84260;SDS011;74405;44.868;18.808;2023-12-28T09:38:25;78.00;;;46.95;;
84260;SDS011;74405;44.868;18.808;2023-12-28T09:40:52;72.65;;;43.50;;
84260;SDS011;74405;44.868;18.808;2023-12-28T09:43:21;67.57;;;42.58;;
84260;SDS011;74405;44.868;18.808;2023-12-28T09:45:52;60.88;;;36.55;;
84260;SDS011;74405;44.868;18.808;2023-12-28T09:48:19;62.72;;;35.67;;
84260;SDS011;74405;44.868;18.808;2023-12-28T09:50:50;61.63;;;34.97;;
84260;SDS011;74405;44.868;18.808;2023-12-28T09:53:20;68.72;;;39.28;;
84260;SDS011;74405;44.868;18.808;2023-12-28T09:55:48;69.90;;;41.08;;
84260;SDS011;74405;44.868;18.808;2023-12-28T09:58:15;67.35;;;41.47;;
84260;SDS011;74405;44.868;18.808;2023-12-28T10:00:45;79.80;;;47.65;;
84260;SDS011;74405;44.868;18.808;2023-12-28T10:03:13;76.97;;;43.88;;
84260;SDS011;74405;44.868;18.808;2023-12-28T10:05:46;70.25;;;40.05;;
84260;SDS011;74405;44.868;18.808;2023-12-28T10:08:12;67.90;;;39.13;;
84260;SDS011;74405;44.868;18.808;2023-12-28T10:10:41;65.32;;;40.65;;
84260;SDS011;74405;44.868;18.808;2023-12-28T10:13:10;64.80;;;41.10;;
84260;SDS011;74405;44.868;18.808;2023-12-28T10:15:36;63.05;;;42.78;;
84260;SDS011;74405;44.868;18.808;2023-12-28T10:18:05;58.20;;;39.40;;
84260;SDS011;74405;44.868;18.808;2023-12-28T10:20:31;60.95;;;41.60;;
84260;SDS011;74405;44.868;18.808;2023-12-28T10:22:58;58.90;;;41.10;;
84260;SDS011;74405;44.868;18.808;2023-12-28T10:25:24;99.97;;;65.53;;
84260;SDS011;74405;44.868;18.808;2023-12-28T10:27:50;103.22;;;69.40;;
84260;SDS011;74405;44.868;18.808;2023-12-28T10:34:06;73.78;;;55.30;;
84260;SDS011;74405;44.868;18.808;2023-12-28T10:36:31;91.35;;;67.60;;
84260;SDS011;74405;44.868;18.808;2023-12-28T10:39:01;84.45;;;65.80;;
84260;SDS011;74405;44.868;18.808;2023-12-28T10:41:30;73.88;;;56.70;;
84260;SDS011;74405;44.868;18.808;2023-12-28T10:44:04;74.25;;;56.70;;
84260;SDS011;74405;44.868;18.808;2023-12-28T10:46:31;65.22;;;50.17;;
84260;SDS011;74405;44.868;18.808;2023-12-28T10:49:00;55.35;;;45.97;;
84260;SDS011;74405;44.868;18.808;2023-12-28T10:51:30;50.85;;;41.53;;
84260;SDS011;74405;44.868;18.808;2023-12-28T10:56:48;51.42;;;40.97;;
84260;SDS011;74405;44.868;18.808;2023-12-28T10:59:32;64.65;;;45.75;;
84260;SDS011;74405;44.868;18.808;2023-12-28T11:02:10;62.53;;;44.67;;
84260;SDS011;74405;44.868;18.808;2023-12-28T11:04:44;64.40;;;47.65;;
84260;SDS011;74405;44.868;18.808;2023-12-28T11:07:15;56.75;;;44.60;;
84260;SDS011;74405;44.868;18.808;2023-12-28T11:09:43;61.83;;;45.70;;
84260;SDS011;74405;44.868;18.808;2023-12-28T11:12:10;52.38;;;37.60;;
84260;SDS011;74405;44.868;18.808;2023-12-28T11:14:39;47.95;;;36.03;;
84260;SDS011;74405;44.868;18.808;2023-12-28T11:17:06;47.45;;;36.03;;
84260;SDS011;74405;44.868;18.808;2023-12-28T11:19:32;51.22;;;36.90;;
84260;SDS011;74405;44.868;18.808;2023-12-28T11:22:00;39.50;;;28.05;;
84260;SDS011;74405;44.868;18.808;2023-12-28T11:24:28;36.50;;;28.08;;
84260;SDS011;74405;44.868;18.808;2023-12-28T11:26:54;37.20;;;29.73;;
84260;SDS011;74405;44.868;18.808;2023-12-28T11:29:21;32.13;;;24.63;;
84260;SDS011;74405;44.868;18.808;2023-12-28T11:31:50;31.33;;;24.10;;
84260;SDS011;74405;44.868;18.808;2023-12-28T11:34:16;31.27;;;26.33;;
84260;SDS011;74405;44.868;18.808;2023-12-28T11:36:49;34.78;;;27.40;;
84260;SDS011;74405;44.868;18.808;2023-12-28T11:39:32;38.22;;;29.83;;
84260;SDS011;74405;44.868;18.808;2023-12-28T11:41:59;31.83;;;23.77;;
84260;SDS011;74405;44.868;18.808;2023-12-28T11:44:30;31.35;;;26.15;;
84260;SDS011;74405;44.868;18.808;2023-12-28T11:46:56;25.85;;;22.30;;
84260;SDS011;74405;44.868;18.808;2023-12-28T11:49:25;32.05;;;25.27;;
84260;SDS011;74405;44.868;18.808;2023-12-28T11:51:55;32.55;;;25.98;;
84260;SDS011;74405;44.868;18.808;2023-12-28T11:54:23;26.58;;;22.30;;
84260;SDS011;74405;44.868;18.808;2023-12-28T11:56:49;30.23;;;24.38;;
84260;SDS011;74405;44.868;18.808;2023-12-28T11:59:15;35.25;;;27.27;;
84260;SDS011;74405;44.868;18.808;2023-12-28T12:01:41;30.33;;;23.88;;
84260;SDS011;74405;44.868;18.808;2023-12-28T12:04:07;31.38;;;26.92;;
84260;SDS011;74405;44.868;18.808;2023-12-28T12:06:32;30.95;;;25.65;;
84260;SDS011;74405;44.868;18.808;2023-12-28T12:08:58;31.75;;;24.75;;
84260;SDS011;74405;44.868;18.808;2023-12-28T12:11:24;33.15;;;25.77;;
84260;SDS011;74405;44.868;18.808;2023-12-28T12:13:51;36.50;;;28.55;;
84260;SDS011;74405;44.868;18.808;2023-12-28T12:16:18;35.78;;;28.30;;
84260;SDS011;74405;44.868;18.808;2023-12-28T12:18:44;38.17;;;30.45;;
84260;SDS011;74405;44.868;18.808;2023-12-28T12:21:09;35.40;;;28.33;;
84260;SDS011;74405;44.868;18.808;2023-12-28T12:23:35;35.72;;;27.77;;
84260;SDS011;74405;44.868;18.808;2023-12-28T12:26:04;32.58;;;27.17;;
84260;SDS011;74405;44.868;18.808;2023-12-28T12:28:30;33.45;;;25.65;;
84260;SDS011;74405;44.868;18.808;2023-12-28T12:30:56;48.38;;;37.85;;
84260;SDS011;74405;44.868;18.808;2023-12-28T12:33:22;46.30;;;37.53;;
84260;SDS011;74405;44.868;18.808;2023-12-28T12:35:49;49.00;;;39.33;;
84260;SDS011;74405;44.868;18.808;2023-12-28T12:38:15;53.97;;;39.85;;
84260;SDS011;74405;44.868;18.808;2023-12-28T12:40:41;44.20;;;36.42;;
84260;SDS011;74405;44.868;18.808;2023-12-28T12:43:07;46.67;;;36.45;;
84260;SDS011;74405;44.868;18.808;2023-12-28T12:45:34;45.70;;;37.50;;
84260;SDS011;74405;44.868;18.808;2023-12-28T12:48:02;54.15;;;40.15;;
84260;SDS011;74405;44.868;18.808;2023-12-28T12:50:28;53.97;;;41.55;;
84260;SDS011;74405;44.868;18.808;2023-12-28T12:52:56;53.50;;;41.58;;
84260;SDS011;74405;44.868;18.808;2023-12-28T12:55:22;53.17;;;40.83;;
84260;SDS011;74405;44.868;18.808;2023-12-28T12:57:48;48.33;;;36.47;;
84260;SDS011;74405;44.868;18.808;2023-12-28T13:00:14;53.45;;;37.45;;
84260;SDS011;74405;44.868;18.808;2023-12-28T13:02:40;55.28;;;39.35;;
84260;SDS011;74405;44.868;18.808;2023-12-28T13:05:05;47.83;;;31.58;;
84260;SDS011;74405;44.868;18.808;2023-12-28T13:07:31;38.35;;;27.00;;
84260;SDS011;74405;44.868;18.808;2023-12-28T13:09:57;41.53;;;29.85;;
84260;SDS011;74405;44.868;18.808;2023-12-28T13:12:23;41.50;;;28.55;;
84260;SDS011;74405;44.868;18.808;2023-12-28T13:14:50;43.47;;;25.58;;
84260;SDS011;74405;44.868;18.808;2023-12-28T13:17:15;38.95;;;25.48;;
84260;SDS011;74405;44.868;18.808;2023-12-28T13:19:42;42.50;;;26.30;;
84260;SDS011;74405;44.868;18.808;2023-12-28T13:22:07;39.00;;;24.27;;
84260;SDS011;74405;44.868;18.808;2023-12-28T13:24:33;43.72;;;25.10;;
84260;SDS011;74405;44.868;18.808;2023-12-28T13:26:59;34.05;;;22.98;;
84260;SDS011;74405;44.868;18.808;2023-12-28T13:29:25;40.53;;;25.00;;
84260;SDS011;74405;44.868;18.808;2023-12-28T13:31:51;40.40;;;25.38;;
84260;SDS011;74405;44.868;18.808;2023-12-28T13:34:17;34.50;;;23.73;;
84260;SDS011;74405;44.868;18.808;2023-12-28T13:36:44;31.95;;;20.17;;
84260;SDS011;74405;44.868;18.808;2023-12-28T13:39:10;29.27;;;18.73;;
84260;SDS011;74405;44.868;18.808;2023-12-28T13:41:39;37.05;;;22.65;;
84260;SDS011;74405;44.868;18.808;2023-12-28T13:44:05;36.00;;;22.20;;
84260;SDS011;74405;44.868;18.808;2023-12-28T13:46:35;37.55;;;24.02;;
84260;SDS011;74405;44.868;18.808;2023-12-28T13:49:01;32.22;;;21.80;;
84260;SDS011;74405;44.868;18.808;2023-12-28T13:51:29;34.72;;;24.13;;
84260;SDS011;74405;44.868;18.808;2023-12-28T13:53:57;32.22;;;22.25;;
84260;SDS011;74405;44.868;18.808;2023-12-28T13:56:23;36.95;;;22.50;;
84260;SDS011;74405;44.868;18.808;2023-12-28T13:58:49;33.45;;;21.52;;
84260;SDS011;74405;44.868;18.808;2023-12-28T14:01:14;40.03;;;25.55;;
84260;SDS011;74405;44.868;18.808;2023-12-28T14:03:40;36.67;;;22.88;;
84260;SDS011;74405;44.868;18.808;2023-12-28T14:06:06;32.58;;;21.08;;
84260;SDS011;74405;44.868;18.808;2023-12-28T14:08:32;28.15;;;18.17;;